Time;durP1;ratioP1;P1;durP2;ratioP2;P2;SDS_P1;SDS_P2;PMS_P1;PMS_P2;Temp;Humidity;BMP_temperature;BMP_pressure;BME280_temperature;BME280_humidity;BME280_pressure;Samples;Min_cycle;Max_cycle;Signal;HPM_P1;HPM_P2
2022/05/23 00:02:04;;;;;;;8.40;6.57;;;6.80;99.90;;;;;;5054900;28;20044;-71
2022/05/23 00:04:31;;;;;;;8.02;6.15;;;6.70;99.90;;;;;;5054928;28;20100;-69
2022/05/23 00:06:57;;;;;;;6.28;5.70;;;6.70;99.90;;;;;;5054910;28;20124;-69
2022/05/23 00:09:24;;;;;;;10.13;7.72;;;6.60;99.90;;;;;;5053875;28;20021;-71
2022/05/23 00:11:49;;;;;;;10.00;6.75;;;6.50;99.90;;;;;;5055074;28;20025;-71
2022/05/23 00:14:15;;;;;;;9.02;7.47;;;6.50;99.90;;;;;;5054910;28;20037;-68
2022/05/23 00:16:44;;;;;;;6.15;5.40;;;6.40;99.90;;;;;;5054820;28;20021;-68
2022/05/23 00:19:11;;;;;;;8.63;7.82;;;6.30;99.90;;;;;;5053423;28;20045;-71
2022/05/23 00:21:38;;;;;;;12.80;7.82;;;6.30;99.90;;;;;;5054653;28;20039;-68
2022/05/23 00:24:04;;;;;;;12.52;8.23;;;6.20;99.90;;;;;;5054776;28;20479;-71
2022/05/23 00:26:30;;;;;;;12.35;8.55;;;6.20;99.90;;;;;;5062742;28;20096;-71
2022/05/23 00:28:56;;;;;;;14.25;9.63;;;6.20;99.90;;;;;;5074783;28;20412;-71
2022/05/23 00:31:21;;;;;;;12.35;8.82;;;6.20;99.90;;;;;;5057334;28;20033;-68
2022/05/23 00:36:34;;;;;;;11.55;8.32;;;6.20;99.90;;;;;;5054584;28;20083;-71
2022/05/23 00:39:01;;;;;;;13.35;7.82;;;6.20;99.90;;;;;;5053311;28;20453;-71
2022/05/23 00:44:26;;;;;;;15.57;8.68;;;6.30;99.90;;;;;;5054343;28;20094;-68
2022/05/23 00:46:55;;;;;;;10.85;7.97;;;6.30;99.90;;;;;;5054439;28;20104;-71
2022/05/23 00:49:28;;;;;;;13.43;8.95;;;6.30;99.90;;;;;;5054268;28;20053;-68
2022/05/23 00:51:56;;;;;;;11.40;9.05;;;6.30;99.90;;;;;;5054244;28;20425;-68
2022/05/23 00:54:24;;;;;;;10.63;8.18;;;6.30;99.90;;;;;;5054101;28;20538;-68
2022/05/23 00:56:52;;;;;;;9.65;8.07;;;6.30;99.90;;;;;;5054090;28;20047;-71
2022/05/23 00:59:26;;;;;;;13.77;9.20;;;6.20;99.90;;;;;;5054153;28;20025;-72
2022/05/23 01:01:52;;;;;;;12.73;9.45;;;6.20;99.90;;;;;;5053921;28;20390;-68
2022/05/23 01:04:17;;;;;;;14.65;10.93;;;6.20;99.90;;;;;;5052600;28;20108;-68
2022/05/23 01:06:43;;;;;;;13.90;11.15;;;6.20;99.90;;;;;;5053913;28;20036;-72
2022/05/23 01:09:10;;;;;;;12.75;9.68;;;6.20;99.90;;;;;;5053952;28;20013;-68
2022/05/23 01:11:36;;;;;;;13.48;10.32;;;6.20;99.90;;;;;;5053767;28;20031;-71
2022/05/23 01:14:03;;;;;;;15.27;10.23;;;6.10;99.90;;;;;;5052882;28;20115;-69
2022/05/23 01:16:28;;;;;;;13.73;10.13;;;6.10;99.90;;;;;;5053175;28;20462;-68
2022/05/23 01:18:54;;;;;;;15.05;9.70;;;6.10;99.90;;;;;;5053487;28;20098;-71
2022/05/23 01:21:43;;;;;;;17.05;11.10;;;6.10;99.90;;;;;;5053525;28;20375;-68
2022/05/23 01:24:36;;;;;;;15.73;11.60;;;6.10;99.90;;;;;;5053585;28;20415;-68
2022/05/23 01:27:05;;;;;;;21.08;15.95;;;6.10;99.90;;;;;;5066511;28;20082;-71
2022/05/23 01:29:31;;;;;;;35.60;22.33;;;6.00;99.90;;;;;;5071341;28;20099;-71
2022/05/23 01:31:57;;;;;;;21.02;15.80;;;6.10;99.90;;;;;;5052175;28;20135;-69
2022/05/23 01:34:23;;;;;;;18.63;12.05;;;6.10;99.90;;;;;;5053282;28;20025;-72
2022/05/23 01:36:49;;;;;;;18.20;12.98;;;6.10;99.90;;;;;;5051989;28;20048;-68
2022/05/23 01:39:14;;;;;;;13.93;10.98;;;6.00;99.90;;;;;;5053501;28;20021;-68
2022/05/23 01:41:40;;;;;;;14.98;11.02;;;6.00;99.90;;;;;;5053116;28;20517;-71
2022/05/23 01:44:06;;;;;;;17.63;10.35;;;6.00;99.90;;;;;;5053454;28;20067;-68
2022/05/23 01:46:31;;;;;;;15.05;10.75;;;5.90;99.90;;;;;;5051935;28;20506;-68
2022/05/23 01:48:57;;;;;;;14.85;10.55;;;5.90;99.90;;;;;;5053224;28;20029;-71
2022/05/23 01:51:22;;;;;;;13.45;10.25;;;5.90;99.90;;;;;;5053173;28;20025;-68
2022/05/23 01:53:48;;;;;;;17.05;11.23;;;5.90;99.90;;;;;;5053081;28;20032;-68
2022/05/23 01:56:13;;;;;;;15.90;12.50;;;5.90;99.90;;;;;;5053085;28;20025;-71
2022/05/23 02:01:25;;;;;;;16.20;13.18;;;5.80;99.90;;;;;;5053196;28;20086;-68
2022/05/23 02:03:51;;;;;;;25.80;18.50;;;5.70;99.90;;;;;;5052948;28;20021;-71
2022/05/23 02:06:17;;;;;;;17.90;12.32;;;5.70;99.90;;;;;;5052980;28;20115;-68
2022/05/23 02:08:42;;;;;;;17.42;11.50;;;5.50;99.90;;;;;;5052778;28;20056;-68
2022/05/23 02:11:09;;;;;;;14.77;10.25;;;5.40;99.90;;;;;;5052988;28;20025;-68
2022/05/23 02:13:36;;;;;;;13.75;10.90;;;5.30;99.90;;;;;;5053002;28;20100;-71
2022/05/23 02:16:02;;;;;;;16.65;11.32;;;5.20;99.90;;;;;;5052810;28;20451;-71
2022/05/23 02:18:28;;;;;;;18.52;12.95;;;5.20;99.90;;;;;;5052575;28;20076;-71
2022/05/23 02:20:54;;;;;;;14.77;11.30;;;5.20;99.90;;;;;;5053104;28;20304;-68
2022/05/23 02:23:19;;;;;;;15.95;10.38;;;5.20;99.90;;;;;;5051524;28;20059;-72
2022/05/23 02:25:45;;;;;;;15.43;11.18;;;5.20;99.90;;;;;;5055289;28;20025;-71
2022/05/23 02:28:11;;;;;;;13.80;9.23;;;5.20;99.90;;;;;;5072910;28;20059;-68
2022/05/23 02:30:37;;;;;;;18.42;10.77;;;5.30;99.90;;;;;;5064398;28;20056;-68
2022/05/23 02:33:03;;;;;;;14.52;10.07;;;5.40;99.90;;;;;;5057028;28;20100;-69
2022/05/23 02:35:29;;;;;;;16.02;11.00;;;5.50;99.90;;;;;;5056727;28;20024;-68
2022/05/23 02:37:55;;;;;;;14.20;10.10;;;5.70;99.90;;;;;;5056824;28;20386;-68
2022/05/23 02:40:20;;;;;;;13.57;9.70;;;5.80;99.90;;;;;;5056703;28;20039;-68
2022/05/23 02:42:46;;;;;;;14.15;9.65;;;6.00;99.90;;;;;;5055285;28;20048;-68
2022/05/23 02:45:12;;;;;;;12.27;8.50;;;6.00;99.90;;;;;;5056716;28;20478;-71
2022/05/23 02:47:37;;;;;;;12.52;9.68;;;6.10;99.90;;;;;;5056513;28;20501;-71
2022/05/23 02:50:04;;;;;;;11.15;8.15;;;6.10;99.90;;;;;;5056738;28;20028;-68
2022/05/23 02:52:30;;;;;;;8.32;6.40;;;6.10;99.90;;;;;;5056314;28;20029;-71
2022/05/23 02:54:55;;;;;;;12.18;7.75;;;6.00;99.90;;;;;;5056487;28;20025;-67
2022/05/23 02:57:21;;;;;;;11.50;7.82;;;6.00;99.90;;;;;;5056536;28;20029;-71
2022/05/23 02:59:47;;;;;;;12.10;8.23;;;5.90;99.90;;;;;;5056362;28;20368;-72
2022/05/23 03:04:56;;;;;;;12.77;7.80;;;5.80;99.90;;;;;;5056535;28;20043;-68
2022/05/23 03:07:22;;;;;;;8.93;7.53;;;5.80;99.90;;;;;;5056281;28;20025;-71
2022/05/23 03:09:48;;;;;;;8.52;7.03;;;5.80;99.90;;;;;;5056193;28;20021;-71
2022/05/23 03:12:13;;;;;;;9.57;7.65;;;5.80;99.90;;;;;;5056206;28;20025;-68
2022/05/23 03:14:39;;;;;;;14.43;8.18;;;5.80;99.90;;;;;;5055979;28;20021;-72
2022/05/23 03:17:06;;;;;;;9.60;7.47;;;5.80;99.90;;;;;;5056348;28;20033;-68
2022/05/23 03:19:35;;;;;;;10.52;8.55;;;5.80;99.90;;;;;;5056014;28;20049;-71
2022/05/23 03:27:29;;;;;;;11.95;8.20;;;6.00;99.90;;;;;;5073234;28;20031;-70
2022/05/23 03:29:54;;;;;;;11.82;8.50;;;6.30;99.90;;;;;;5069705;28;20017;-71
2022/05/23 03:32:20;;;;;;;22.90;18.80;;;6.60;99.90;;;;;;5054519;28;20017;-68
2022/05/23 03:34:47;;;;;;;12.02;8.77;;;6.90;99.90;;;;;;5055620;28;20475;-72
2022/05/23 03:37:12;;;;;;;11.07;9.27;;;7.10;99.90;;;;;;5054481;28;20021;-68
2022/05/23 03:39:38;;;;;;;11.82;8.90;;;7.40;99.90;;;;;;5055109;28;20131;-71
2022/05/23 03:42:05;;;;;;;8.45;6.32;;;7.50;99.90;;;;;;5055486;28;20036;-68
2022/05/23 03:44:31;;;;;;;10.55;7.28;;;7.80;99.90;;;;;;5054234;28;20021;-68
2022/05/23 03:46:57;;;;;;;11.10;7.20;;;8.20;99.90;;;;;;5055602;28;20036;-69
2022/05/23 03:49:22;;;;;;;8.85;6.72;;;8.40;99.90;;;;;;5055392;28;20017;-68
2022/05/23 03:51:48;;;;;;;9.80;7.00;;;8.50;99.90;;;;;;5055485;28;20392;-71
2022/05/23 03:54:13;;;;;;;8.75;6.68;;;8.80;99.90;;;;;;5055231;28;20025;-72
2022/05/23 03:56:39;;;;;;;7.60;6.72;;;9.00;99.90;;;;;;5053992;28;20474;-68
2022/05/23 03:59:05;;;;;;;8.70;7.32;;;9.00;99.90;;;;;;5055312;28;20105;-70
2022/05/23 04:01:31;;;;;;;6.85;5.85;;;9.20;99.90;;;;;;5053843;28;20445;-68
2022/05/23 04:03:58;;;;;;;7.43;5.50;;;9.30;99.90;;;;;;5055121;28;20091;-71
2022/05/23 04:06:23;;;;;;;8.20;6.20;;;9.40;99.90;;;;;;5053792;28;20036;-71
2022/05/23 04:08:49;;;;;;;7.70;5.75;;;9.60;99.90;;;;;;5055130;28;20037;-72
2022/05/23 04:11:15;;;;;;;7.25;5.72;;;9.80;99.90;;;;;;5055037;28;20082;-72
2022/05/23 04:13:40;;;;;;;5.20;4.70;;;10.00;99.90;;;;;;5054911;28;20017;-70
2022/05/23 04:16:06;;;;;;;5.00;4.50;;;10.10;99.90;;;;;;5055005;28;20059;-71
2022/05/23 04:18:33;;;;;;;6.43;4.65;;;10.20;99.90;;;;;;5054695;28;20398;-71
2022/05/23 04:21:01;;;;;;;5.00;4.40;;;10.30;99.90;;;;;;5054861;28;20025;-71
2022/05/23 04:23:27;;;;;;;5.72;4.75;;;10.40;99.90;;;;;;5054847;28;20040;-69
2022/05/23 04:25:53;;;;;;;7.38;4.70;;;10.40;99.90;;;;;;5057842;28;20017;-72
2022/05/23 04:28:20;;;;;;;6.45;4.38;;;10.30;99.90;;;;;;5073503;28;20021;-72
2022/05/23 04:30:46;;;;;;;5.30;4.63;;;10.30;99.90;;;;;;5061114;28;20025;-68
2022/05/23 04:35:57;;;;;;;7.00;4.50;;;10.40;99.90;;;;;;5054769;28;20410;-72
2022/05/23 04:38:22;;;;;;;4.90;4.20;;;10.40;99.90;;;;;;5054459;28;20035;-71
2022/05/23 04:40:48;;;;;;;6.25;3.75;;;10.50;99.90;;;;;;5054460;28;20430;-71
2022/05/23 04:43:14;;;;;;;4.63;4.10;;;10.50;99.90;;;;;;5053264;28;20025;-69
2022/05/23 04:45:41;;;;;;;4.65;3.70;;;10.70;99.90;;;;;;5054283;28;20021;-72
2022/05/23 04:50:51;;;;;;;3.55;3.25;;;10.50;99.90;;;;;;5054440;28;20083;-68
2022/05/23 04:53:17;;;;;;;6.30;3.53;;;10.50;99.90;;;;;;5053606;28;20029;-72
2022/05/23 04:55:43;;;;;;;4.15;3.50;;;10.60;99.90;;;;;;5053980;28;20017;-72
2022/05/23 04:58:13;;;;;;;4.57;4.00;;;10.60;99.90;;;;;;5052984;28;20390;-69
2022/05/23 05:00:39;;;;;;;7.35;3.80;;;10.60;99.90;;;;;;5053820;28;20385;-69
2022/05/23 05:03:06;;;;;;;4.10;3.63;;;10.70;99.90;;;;;;5053984;28;20040;-72
2022/05/23 05:05:33;;;;;;;4.53;3.30;;;10.40;99.90;;;;;;5050661;28;20033;-72
2022/05/23 05:07:59;;;;;;;4.65;3.63;;;10.50;99.90;;;;;;5041726;28;20030;-72
2022/05/23 05:10:26;;;;;;;7.57;4.03;;;10.50;99.90;;;;;;5032612;28;20022;-69
2022/05/23 05:12:53;;;;;;;3.83;3.15;;;10.40;99.90;;;;;;5047067;28;20029;-72
2022/05/23 05:15:20;;;;;;;3.45;3.15;;;10.50;99.90;;;;;;5053578;28;20020;-72
2022/05/23 05:17:46;;;;;;;4.05;2.92;;;10.60;99.90;;;;;;5046003;28;20072;-72
2022/05/23 05:20:13;;;;;;;7.28;3.30;;;10.80;99.90;;;;;;5056829;28;20052;-72
2022/05/23 05:22:39;;;;;;;4.32;3.67;;;10.90;99.90;;;;;;5056763;28;20055;-72
2022/05/23 05:25:08;;;;;;;3.40;3.10;;;11.00;99.90;;;;;;5072336;28;20020;-72
2022/05/23 05:27:33;;;;;;;5.75;3.40;;;11.10;97.20;;;;;;5065233;28;20538;-72
2022/05/23 05:30:00;;;;;;;3.50;3.20;;;11.20;98.10;;;;;;5068058;28;20155;-74
2022/05/23 05:32:53;;;;;;;3.35;2.97;;;11.30;97.10;;;;;;5071265;28;20093;-69
2022/05/23 05:35:29;;;;;;;3.83;3.35;;;11.40;95.10;;;;;;5067819;28;20393;-69
2022/05/23 05:38:13;;;;;;;4.15;3.80;;;11.50;93.70;;;;;;5072297;28;20092;-73
2022/05/23 05:40:40;;;;;;;4.47;2.90;;;11.50;92.10;;;;;;5072589;28;20078;-73
2022/05/23 05:43:14;;;;;;;5.43;3.10;;;11.70;93.20;;;;;;5060592;28;20041;-74
2022/05/23 05:45:48;;;;;;;4.25;2.55;;;12.00;89.60;;;;;;5059471;28;20411;-72
2022/05/23 05:48:13;;;;;;;3.67;2.85;;;12.10;87.90;;;;;;5061052;28;20025;-72
2022/05/23 05:50:41;;;;;;;3.42;2.80;;;12.20;88.30;;;;;;5058038;28;20028;-72
2022/05/23 05:53:11;;;;;;;4.60;3.47;;;12.40;86.10;;;;;;5049869;28;20521;-73
2022/05/23 05:55:39;;;;;;;2.88;2.65;;;12.50;84.20;;;;;;5068560;28;20035;-72
2022/05/23 05:58:05;;;;;;;5.47;2.97;;;12.40;83.90;;;;;;5073142;28;20044;-73
2022/05/23 06:00:30;;;;;;;5.68;4.15;;;12.60;84.20;;;;;;5072887;28;20021;-69
2022/05/23 06:02:56;;;;;;;4.88;4.25;;;12.60;88.50;;;;;;5072874;28;20039;-73
2022/05/23 06:05:21;;;;;;;4.15;3.72;;;12.70;89.30;;;;;;5072908;28;20020;-73
2022/05/23 06:13:15;;;;;;;6.88;4.20;;;13.20;83.30;;;;;;5073358;28;20135;-70
2022/05/23 06:15:41;;;;;;;8.35;4.72;;;13.20;82.50;;;;;;5071534;28;20147;-69
2022/05/23 06:18:07;;;;;;;4.30;3.90;;;13.30;81.70;;;;;;5072872;28;20401;-70
2022/05/23 06:20:32;;;;;;;4.63;3.90;;;13.50;81.00;;;;;;5072572;28;20044;-70
2022/05/23 06:22:58;;;;;;;5.40;4.57;;;13.50;80.40;;;;;;5072781;28;20029;-69
2022/05/23 06:25:23;;;;;;;6.40;4.70;;;13.50;80.30;;;;;;5072769;28;20017;-70
2022/05/23 06:27:49;;;;;;;4.60;4.18;;;13.80;82.10;;;;;;5072194;28;20032;-72
2022/05/23 06:30:17;;;;;;;5.15;3.72;;;14.00;80.30;;;;;;5060683;28;20029;-73
2022/05/23 06:32:43;;;;;;;4.55;4.07;;;14.00;76.80;;;;;;5050515;28;20025;-73
2022/05/23 06:35:09;;;;;;;4.78;4.13;;;14.10;77.40;;;;;;5049361;28;20031;-72
2022/05/23 06:37:36;;;;;;;5.70;4.10;;;14.20;76.70;;;;;;5050561;28;20104;-73
2022/05/23 06:40:04;;;;;;;3.95;3.65;;;14.10;76.90;;;;;;5050519;28;20025;-72
2022/05/23 06:42:30;;;;;;;6.28;3.60;;;14.00;76.60;;;;;;5050171;28;20060;-70
2022/05/23 06:44:55;;;;;;;3.95;3.55;;;13.70;75.80;;;;;;5052451;28;20517;-70
2022/05/23 06:47:21;;;;;;;4.25;3.83;;;13.60;78.20;;;;;;5052225;28;20025;-72
2022/05/23 06:49:46;;;;;;;4.95;3.83;;;13.80;79.40;;;;;;5052565;28;20060;-70
2022/05/23 06:52:15;;;;;;;3.75;3.45;;;13.90;77.10;;;;;;5051317;28;20410;-73
2022/05/23 06:54:41;;;;;;;5.55;3.22;;;13.90;76.10;;;;;;5052358;28;20471;-70
2022/05/23 06:57:06;;;;;;;3.30;3.00;;;13.80;75.80;;;;;;5052511;28;20103;-69
2022/05/23 06:59:32;;;;;;;4.38;3.22;;;14.00;74.30;;;;;;5052535;28;20071;-70
2022/05/23 07:01:58;;;;;;;4.25;3.70;;;14.10;74.60;;;;;;5052271;28;20037;-69
2022/05/23 07:04:23;;;;;;;4.05;2.53;;;14.40;73.20;;;;;;5051082;28;20025;-70
2022/05/23 07:12:19;;;;;;;5.70;2.42;;;14.30;70.20;;;;;;5052081;28;20036;-72
2022/05/23 07:14:45;;;;;;;4.95;2.88;;;14.00;70.60;;;;;;5052550;28;20513;-70
2022/05/23 07:17:11;;;;;;;4.22;2.50;;;13.90;71.30;;;;;;5055808;28;20033;-72
2022/05/23 07:19:37;;;;;;;4.60;2.55;;;13.90;71.30;;;;;;5055868;28;20056;-70
2022/05/23 07:22:03;;;;;;;3.13;2.55;;;13.80;70.40;;;;;;5055869;28;20029;-72
2022/05/23 07:24:31;;;;;;;4.97;2.95;;;13.80;71.60;;;;;;5055796;28;20017;-72
2022/05/23 07:26:57;;;;;;;2.88;2.58;;;14.10;72.30;;;;;;5055516;28;20028;-72
2022/05/23 07:29:23;;;;;;;3.95;2.65;;;14.30;69.80;;;;;;5055590;28;20017;-70
2022/05/23 07:31:50;;;;;;;2.28;2.08;;;14.30;68.50;;;;;;5055771;28;20021;-72
2022/05/23 07:34:16;;;;;;;3.13;2.10;;;14.40;68.50;;;;;;5055772;28;20017;-73
2022/05/23 07:36:41;;;;;;;1.63;1.52;;;14.70;69.20;;;;;;5054982;28;20405;-70
2022/05/23 07:39:11;;;;;;;2.33;1.83;;;15.10;65.40;;;;;;5053586;28;20061;-72
2022/05/23 07:41:39;;;;;;;2.05;1.77;;;15.40;64.60;;;;;;5052452;28;20564;-71
2022/05/23 07:44:05;;;;;;;2.47;1.70;;;15.80;62.90;;;;;;5054306;28;20104;-72
2022/05/23 07:46:31;;;;;;;3.40;1.98;;;16.00;60.90;;;;;;5054187;28;20025;-70
2022/05/23 07:48:57;;;;;;;1.67;1.52;;;16.30;60.80;;;;;;5054191;28;20427;-72
2022/05/23 07:51:23;;;;;;;1.50;1.40;;;16.30;60.70;;;;;;5053631;28;20108;-72
2022/05/23 08:02:01;;;;;;;0.80;0.80;;;16.70;57.00;;;;;;5055003;28;20047;-73
2022/05/23 08:04:27;;;;;;;1.50;1.20;;;16.70;56.60;;;;;;5055329;28;20060;-73
2022/05/23 08:06:53;;;;;;;1.35;1.05;;;16.70;57.60;;;;;;5053831;28;20520;-74
2022/05/23 08:09:19;;;;;;;1.40;1.30;;;16.60;57.30;;;;;;5048493;28;20565;-73
2022/05/23 08:11:49;;;;;;;1.13;1.05;;;16.60;56.90;;;;;;5034999;28;20104;-73
2022/05/23 08:14:15;;;;;;;3.17;1.38;;;16.60;57.20;;;;;;5034758;28;20076;-74
2022/05/23 08:16:41;;;;;;;1.67;1.55;;;16.60;56.30;;;;;;5033652;28;20025;-73
2022/05/23 08:19:07;;;;;;;1.42;1.27;;;16.50;56.40;;;;;;5034537;28;20056;-73
2022/05/23 08:21:34;;;;;;;2.45;1.35;;;16.60;57.30;;;;;;5034656;28;20105;-73
2022/05/23 08:24:00;;;;;;;1.10;0.98;;;16.50;57.10;;;;;;5034647;28;20025;-73
2022/05/23 08:26:27;;;;;;;1.38;1.20;;;16.20;57.30;;;;;;5053646;28;20082;-73
2022/05/23 08:28:53;;;;;;;1.25;1.15;;;16.30;57.10;;;;;;5074652;28;20027;-73
2022/05/23 08:31:19;;;;;;;1.05;1.05;;;16.00;57.10;;;;;;5053882;28;20432;-73
2022/05/23 08:33:44;;;;;;;1.70;1.00;;;16.00;57.80;;;;;;5054243;28;20025;-74
2022/05/23 08:36:10;;;;;;;1.33;1.23;;;15.90;57.50;;;;;;5054535;28;20025;-74
2022/05/23 08:38:37;;;;;;;1.02;0.75;;;16.10;58.30;;;;;;5053222;28;20059;-73
2022/05/23 08:41:13;;;;;;;0.65;0.65;;;15.90;57.00;;;;;;5052280;28;20358;-73
2022/05/23 08:43:52;;;;;;;1.10;1.00;;;15.90;56.70;;;;;;5053282;28;20565;-73
2022/05/23 08:46:26;;;;;;;1.83;1.13;;;15.90;56.80;;;;;;5052923;28;20099;-73
2022/05/23 08:49:02;;;;;;;0.93;0.93;;;15.80;57.60;;;;;;5052124;28;20028;-74
2022/05/23 08:51:40;;;;;;;0.80;0.80;;;15.90;57.80;;;;;;5053660;28;20372;-73
2022/05/23 08:54:24;;;;;;;1.55;1.20;;;15.90;57.70;;;;;;5053711;28;20017;-73
2022/05/23 08:56:55;;;;;;;1.10;1.00;;;15.90;56.80;;;;;;5054074;28;20078;-73
2022/05/23 08:59:25;;;;;;;0.85;0.85;;;16.30;57.40;;;;;;5054043;28;20028;-74
2022/05/23 09:01:59;;;;;;;1.73;1.50;;;16.50;56.10;;;;;;5052060;28;20418;-73
2022/05/23 09:04:30;;;;;;;2.42;0.90;;;16.80;54.00;;;;;;5053102;28;20032;-73
2022/05/23 09:06:58;;;;;;;1.42;0.65;;;17.10;53.70;;;;;;5052380;28;20059;-74
2022/05/23 09:09:25;;;;;;;2.22;1.02;;;17.40;52.90;;;;;;5052404;28;20495;-74
2022/05/23 09:11:55;;;;;;;0.80;0.70;;;17.30;52.80;;;;;;5053609;28;20017;-74
2022/05/23 09:14:21;;;;;;;0.40;0.40;;;17.20;53.40;;;;;;5053596;28;20021;-74
2022/05/23 09:16:53;;;;;;;0.60;0.60;;;17.30;50.60;;;;;;5051917;28;20783;-73
2022/05/23 09:19:43;;;;;;;1.95;1.17;;;17.50;52.20;;;;;;5050135;28;20144;-74
2022/05/23 09:22:24;;;;;;;0.57;0.57;;;17.50;52.80;;;;;;5049939;28;20025;-74
2022/05/23 09:24:55;;;;;;;0.50;0.50;;;17.90;53.10;;;;;;5046511;28;20063;-70
2022/05/23 09:27:34;;;;;;;0.95;0.80;;;17.90;52.80;;;;;;5050871;28;20652;-70
2022/05/23 09:30:00;;;;;;;0.80;0.80;;;18.10;52.20;;;;;;5051251;28;20017;-70
2022/05/23 09:32:34;;;;;;;1.50;0.73;;;18.30;51.10;;;;;;5050360;28;20059;-70
2022/05/23 09:35:02;;;;;;;1.02;1.02;;;18.60;50.30;;;;;;5051302;28;20013;-74
2022/05/23 09:37:39;;;;;;;1.30;1.00;;;18.70;49.30;;;;;;5053097;28;20013;-74
2022/05/23 09:40:09;;;;;;;1.25;0.95;;;18.90;50.10;;;;;;5048382;28;20043;-74
2022/05/23 09:48:16;;;;;;;0.88;0.88;;;18.90;49.20;;;;;;5050793;28;20040;-71
2022/05/23 09:50:53;;;;;;;1.83;0.88;;;18.90;49.60;;;;;;5051189;28;20021;-71
2022/05/23 09:53:25;;;;;;;0.95;0.90;;;18.30;49.80;;;;;;5051405;28;20104;-74
2022/05/23 09:55:51;;;;;;;2.95;1.42;;;18.20;49.80;;;;;;5053084;28;20379;-74
2022/05/23 09:58:40;;;;;;;2.85;1.30;;;18.60;49.70;;;;;;5052223;28;20025;-74
2022/05/23 10:01:10;;;;;;;1.98;1.48;;;18.30;51.20;;;;;;5052700;28;20163;-74
2022/05/23 10:03:47;;;;;;;1.98;1.20;;;17.70;51.70;;;;;;5053010;28;20406;-74
2022/05/23 10:06:13;;;;;;;1.63;1.52;;;17.10;53.30;;;;;;5052929;28;20135;-73
2022/05/23 10:08:45;;;;;;;2.42;1.30;;;17.20;53.80;;;;;;5052954;28;20030;-74
2022/05/23 10:11:34;;;;;;;1.98;1.15;;;17.30;53.50;;;;;;5051358;28;20043;-74
2022/05/23 10:14:03;;;;;;;1.30;1.15;;;17.40;53.10;;;;;;5051865;28;20021;-74
2022/05/23 10:16:32;;;;;;;3.55;1.48;;;17.50;52.30;;;;;;5050571;28;20031;-71
2022/05/23 10:19:00;;;;;;;4.10;1.20;;;18.00;52.70;;;;;;5050957;28;20103;-70
2022/05/23 10:21:36;;;;;;;2.72;1.50;;;18.40;52.00;;;;;;5050483;28;20075;-74
2022/05/23 10:24:17;;;;;;;1.00;1.00;;;18.70;50.10;;;;;;5050790;28;20032;-74
2022/05/23 10:27:00;;;;;;;1.02;0.90;;;18.60;49.00;;;;;;5052630;28;20017;-74
2022/05/23 10:29:44;;;;;;;0.95;0.95;;;18.20;50.00;;;;;;5051323;28;20017;-73
2022/05/23 10:32:14;;;;;;;1.63;1.15;;;18.10;49.50;;;;;;5051266;28;20025;-74
2022/05/23 10:34:54;;;;;;;0.95;0.95;;;18.00;49.00;;;;;;5051279;28;20416;-73
2022/05/23 10:37:25;;;;;;;1.15;1.00;;;17.80;50.70;;;;;;5052662;28;20017;-74
2022/05/23 10:43:05;;;;;;;3.00;1.52;;;17.40;52.20;;;;;;5052588;28;20146;-71
2022/05/23 10:45:47;;;;;;;1.48;1.38;;;17.50;51.50;;;;;;5052532;28;20029;-70
2022/05/23 10:48:27;;;;;;;2.40;1.30;;;17.50;52.00;;;;;;5052493;28;20029;-70
2022/05/23 10:51:12;;;;;;;1.88;1.77;;;17.40;51.70;;;;;;5053120;28;20044;-70
2022/05/23 10:53:41;;;;;;;1.50;1.40;;;17.50;52.20;;;;;;5055211;28;20112;-74
2022/05/23 10:56:21;;;;;;;1.73;1.13;;;17.50;51.60;;;;;;5056073;28;20029;-70
2022/05/23 10:59:00;;;;;;;1.17;1.10;;;17.60;51.30;;;;;;5056357;28;20021;-70
2022/05/23 11:01:47;;;;;;;1.30;1.20;;;17.50;51.70;;;;;;5056283;28;20052;-71
2022/05/23 11:04:15;;;;;;;6.20;1.55;;;17.40;52.40;;;;;;5056165;28;20025;-71
2022/05/23 11:06:59;;;;;;;1.33;1.23;;;17.50;51.90;;;;;;5054832;28;20061;-70
2022/05/23 11:09:59;;;;;;;3.33;1.52;;;17.50;51.50;;;;;;5055027;28;20077;-70
2022/05/23 11:12:45;;;;;;;1.50;1.40;;;17.50;51.80;;;;;;5056139;28;20386;-74
2022/05/23 11:15:46;;;;;;;3.47;1.73;;;17.40;52.50;;;;;;5047988;28;20036;-74
2022/05/23 11:18:39;;;;;;;2.63;1.30;;;17.40;52.70;;;;;;5033878;28;20021;-73
2022/05/23 11:21:09;;;;;;;2.30;1.45;;;17.50;51.90;;;;;;5055252;28;20077;-74
2022/05/23 11:23:53;;;;;;;4.15;1.85;;;17.60;51.70;;;;;;5055611;28;20478;-74
2022/05/23 11:26:25;;;;;;;1.30;1.20;;;17.70;51.50;;;;;;5065860;28;20066;-74
2022/05/23 11:34:30;;;;;;;1.70;1.60;;;18.00;51.50;;;;;;5035756;28;20033;-73
2022/05/23 11:39:44;;;;;;;1.70;1.48;;;18.00;50.30;;;;;;5035737;28;20027;-74
2022/05/23 11:42:27;;;;;;;1.35;1.30;;;18.00;50.30;;;;;;5035397;28;20092;-73
2022/05/23 11:47:59;;;;;;;1.58;1.20;;;18.10;51.70;;;;;;5035465;28;20048;-70
2022/05/23 11:50:31;;;;;;;3.03;1.60;;;18.20;51.40;;;;;;5035373;28;20022;-70
2022/05/23 11:53:18;;;;;;;1.80;1.60;;;18.10;50.40;;;;;;5051524;28;20469;-74
2022/05/23 11:56:06;;;;;;;3.38;1.40;;;18.10;51.00;;;;;;5053729;28;20032;-74
2022/05/23 11:58:48;;;;;;;1.30;1.20;;;18.00;51.00;;;;;;5051910;28;20154;-70
2022/05/23 12:01:14;;;;;;;1.77;1.67;;;17.70;51.80;;;;;;5052884;28;20523;-70
2022/05/23 12:03:52;;;;;;;2.63;1.30;;;17.50;52.60;;;;;;5053622;28;20036;-74
2022/05/23 12:06:36;;;;;;;2.50;1.30;;;17.60;53.00;;;;;;5052296;28;20029;-74
2022/05/23 12:09:12;;;;;;;1.90;1.40;;;17.70;52.70;;;;;;5052165;28;20421;-74
2022/05/23 12:11:49;;;;;;;16.25;2.72;;;17.70;52.50;;;;;;5045527;28;20029;-70
2022/05/23 12:14:19;;;;;;;3.20;1.60;;;17.80;52.50;;;;;;5055333;28;20059;-71
2022/05/23 12:16:57;;;;;;;1.52;1.42;;;17.70;51.60;;;;;;5070929;28;20036;-70
2022/05/23 12:19:32;;;;;;;1.42;1.20;;;17.80;51.70;;;;;;5065629;28;20103;-70
2022/05/23 12:22:21;;;;;;;1.48;1.17;;;18.00;51.20;;;;;;5049640;28;20063;-71
2022/05/23 12:25:09;;;;;;;2.53;1.50;;;18.30;50.80;;;;;;5053309;28;20056;-71
2022/05/23 12:27:44;;;;;;;1.98;1.40;;;18.60;49.90;;;;;;5032824;28;20026;-74
2022/05/23 12:30:24;;;;;;;1.70;1.60;;;19.00;48.60;;;;;;5045967;28;20025;-71
2022/05/23 12:33:00;;;;;;;2.25;1.50;;;19.10;49.30;;;;;;5054811;28;20060;-70
2022/05/23 12:35:57;;;;;;;1.55;1.38;;;19.10;47.90;;;;;;5053979;28;20021;-71
2022/05/23 12:38:36;;;;;;;2.17;1.50;;;19.30;48.70;;;;;;5050376;28;20040;-71
2022/05/23 12:41:17;;;;;;;1.70;1.13;;;19.20;47.10;;;;;;5050601;28;20021;-71
2022/05/23 12:44:07;;;;;;;2.20;1.30;;;19.10;47.70;;;;;;5050737;28;20094;-74
2022/05/23 12:46:55;;;;;;;1.95;1.80;;;19.20;47.30;;;;;;5049315;28;20075;-71
2022/05/23 12:50:02;;;;;;;1.50;1.40;;;19.20;46.90;;;;;;5050610;28;20100;-71
2022/05/23 12:53:16;;;;;;;1.20;1.20;;;19.20;46.80;;;;;;5052488;28;20048;-71
2022/05/23 12:56:19;;;;;;;4.03;2.53;;;19.30;48.50;;;;;;5054534;28;20550;-74
2022/05/23 12:59:08;;;;;;;2.58;1.38;;;19.20;48.40;;;;;;5053263;28;20416;-74
2022/05/23 13:01:37;;;;;;;4.07;2.35;;;19.20;48.10;;;;;;5054286;28;20028;-74
2022/05/23 13:04:20;;;;;;;4.38;1.67;;;19.20;47.70;;;;;;5053013;28;20083;-71
2022/05/23 13:06:51;;;;;;;1.67;1.38;;;19.00;47.40;;;;;;5054150;28;20026;-73
2022/05/23 13:09:35;;;;;;;3.08;1.63;;;18.90;47.20;;;;;;5054063;28;20124;-74
2022/05/23 13:12:07;;;;;;;3.08;1.60;;;18.80;48.30;;;;;;5052703;28;20056;-71
2022/05/23 13:14:51;;;;;;;3.72;2.00;;;18.50;48.30;;;;;;5053782;28;20021;-73
2022/05/23 13:17:38;;;;;;;1.98;1.10;;;18.30;48.60;;;;;;5053747;28;20029;-74
2022/05/23 13:23:17;;;;;;;1.23;1.08;;;18.70;48.20;;;;;;5053816;28;20067;-74
2022/05/23 13:25:44;;;;;;;2.63;2.42;;;19.10;48.20;;;;;;5053943;28;20047;-70
2022/05/23 13:28:12;;;;;;;1.77;1.10;;;19.30;47.70;;;;;;5053372;28;20021;-71
2022/05/23 13:30:43;;;;;;;2.70;1.33;;;19.40;46.30;;;;;;5053477;28;20104;-70
2022/05/23 13:33:11;;;;;;;1.70;1.60;;;19.20;45.90;;;;;;5053629;28;20022;-71
2022/05/23 13:35:38;;;;;;;1.95;1.10;;;19.00;46.00;;;;;;5053392;28;20017;-71
2022/05/23 13:38:22;;;;;;;1.23;1.13;;;18.80;46.10;;;;;;5053436;28;20024;-71
2022/05/23 13:41:00;;;;;;;2.25;1.60;;;18.70;47.40;;;;;;5053374;28;20025;-70
2022/05/23 13:43:33;;;;;;;1.40;1.30;;;18.70;47.70;;;;;;5043704;28;20029;-73
2022/05/23 13:46:05;;;;;;;1.30;1.20;;;18.40;48.30;;;;;;5066081;28;20025;-70
2022/05/23 13:48:40;;;;;;;6.18;1.80;;;18.30;47.90;;;;;;5069527;28;20050;-70
2022/05/23 13:51:11;;;;;;;4.38;1.40;;;18.30;49.00;;;;;;5066328;28;20056;-70
2022/05/23 13:53:41;;;;;;;1.52;1.42;;;18.20;49.30;;;;;;5045942;28;20094;-71
2022/05/23 13:56:06;;;;;;;1.52;1.30;;;18.20;49.00;;;;;;5071336;28;20021;-71
2022/05/23 13:58:38;;;;;;;4.35;1.50;;;18.30;49.60;;;;;;5057734;28;20031;-74
2022/05/23 14:01:16;;;;;;;1.45;1.35;;;18.20;50.10;;;;;;5066500;28;20037;-74
2022/05/23 14:03:45;;;;;;;2.47;1.40;;;18.20;49.70;;;;;;5072303;28;20076;-71
2022/05/23 14:06:20;;;;;;;1.75;1.20;;;18.30;50.40;;;;;;5071951;28;20031;-71
2022/05/23 14:08:54;;;;;;;1.23;1.13;;;18.30;49.90;;;;;;5071023;28;20021;-71